Time;durP1;ratioP1;P1;durP2;ratioP2;P2;SDS_P1;SDS_P2;PMS_P1;PMS_P2;Temp;Humidity;BMP_temperature;BMP_pressure;BME280_temperature;BME280_humidity;BME280_pressure;Samples;Min_cycle;Max_cycle;Signal;HPM_P1;HPM_P2
2022/01/26 00:07:24;;;;;;;0.20;0.20;;;0.00;99.90;;;-0.47;100.00;102293.34;4885772;29;20224;-82
2022/01/26 00:09:52;;;;;;;0.95;0.95;;;0.00;99.90;;;-0.52;100.00;102290.38;4865439;29;20224;-82
2022/01/26 00:12:20;;;;;;;0.22;0.22;;;-0.10;99.90;;;-0.44;100.00;102297.13;4879001;29;20234;-82
2022/01/26 00:14:48;;;;;;;0.10;0.10;;;-0.10;99.90;;;-0.46;100.00;102288.28;4880559;29;20231;-82
2022/01/26 00:17:16;;;;;;;0.20;0.20;;;0.00;99.90;;;-0.36;100.00;102293.44;4893416;29;20733;-82
2022/01/26 00:19:57;;;;;;;0.20;0.20;;;0.00;99.90;;;-0.37;100.00;102288.13;4869869;29;20212;-82
2022/01/26 00:38:42;;;;;;;0.20;0.20;;;0.10;99.90;;;-0.40;100.00;102281.00;4870782;29;20208;-82
2022/01/26 00:41:16;;;;;;;0.20;0.20;;;0.10;99.90;;;-0.39;100.00;102281.91;4862751;29;20212;-82
2022/01/26 00:43:55;;;;;;;0.20;0.20;;;0.10;99.90;;;-0.36;100.00;102288.25;4860354;29;20232;-82
2022/01/26 00:46:24;;;;;;;0.30;0.30;;;0.10;99.90;;;-0.32;100.00;102289.41;4882481;29;20212;-82
2022/01/26 00:48:52;;;;;;;0.40;0.40;;;0.10;99.90;;;-0.33;100.00;102285.00;4853307;29;20216;-82
2022/01/26 00:51:22;;;;;;;0.25;0.25;;;0.10;99.90;;;-0.36;100.00;102288.25;4864677;29;20211;-82
2022/01/26 00:54:01;;;;;;;0.20;0.20;;;0.10;99.90;;;-0.37;100.00;102282.94;4900887;29;20231;-82
2022/01/26 00:56:30;;;;;;;0.20;0.20;;;0.10;99.90;;;-0.41;100.00;102289.56;4861410;29;20212;-82
2022/01/26 00:58:59;;;;;;;0.30;0.30;;;0.10;99.90;;;-0.44;100.00;102286.72;4857912;29;20215;-82
2022/01/26 01:01:27;;;;;;;0.22;0.22;;;0.00;99.90;;;-0.40;100.00;102290.47;4868770;29;20203;-82
2022/01/26 01:03:55;;;;;;;0.20;0.20;;;0.00;99.90;;;-0.34;100.00;102284.09;4872799;29;20237;-82
2022/01/26 01:06:27;;;;;;;0.20;0.20;;;0.10;99.90;;;-0.31;100.00;102293.84;4902641;29;20666;-82
2022/01/26 01:08:57;;;;;;;0.20;0.20;;;0.10;99.90;;;-0.37;100.00;102278.63;4873231;29;20238;-82
2022/01/26 01:11:26;;;;;;;0.20;0.20;;;0.10;99.90;;;-0.42;100.00;102279.03;4903109;29;20208;-82
2022/01/26 01:13:56;;;;;;;0.30;0.30;;;0.10;99.90;;;-0.40;100.00;102286.19;4859374;29;20228;-82
2022/01/26 01:16:24;;;;;;;0.20;0.20;;;0.10;99.90;;;-0.37;100.00;102291.63;4888350;29;20207;-82
2022/01/26 01:19:26;;;;;;;0.30;0.30;;;0.10;99.90;;;-0.46;100.00;102285.69;4861915;29;20204;-82
2022/01/26 01:22:19;;;;;;;0.20;0.20;;;0.10;99.90;;;-0.51;100.00;102286.09;4890272;29;20234;-82
2022/01/26 01:25:12;;;;;;;0.10;0.10;;;0.00;99.90;;;-0.44;100.00;102291.91;4885950;29;20215;-82
2022/01/26 01:28:00;;;;;;;0.73;0.73;;;0.00;99.90;;;-0.40;100.00;102288.78;4892129;29;20212;-82
2022/01/26 01:30:39;;;;;;;0.22;0.22;;;0.00;99.90;;;-0.45;100.00;102286.59;4876757;29;20218;-82
2022/01/26 01:33:09;;;;;;;0.20;0.20;;;0.00;99.90;;;-0.44;100.00;102288.41;4881779;29;20236;-82
2022/01/26 01:35:40;;;;;;;0.20;0.20;;;0.00;99.90;;;-0.46;100.00;102289.97;4865601;29;20236;-82
2022/01/26 01:38:14;;;;;;;0.20;0.20;;;0.00;99.90;;;-0.50;100.00;102282.69;4904392;29;20216;-82
2022/01/26 01:40:49;;;;;;;0.20;0.20;;;0.00;99.90;;;-0.49;100.00;102288.03;4867740;29;20204;-83
2022/01/26 01:43:20;;;;;;;0.20;0.20;;;-0.10;99.90;;;-0.49;100.00;102292.31;4862890;29;20227;-83
2022/01/26 01:45:52;;;;;;;0.20;0.20;;;-0.10;99.90;;;-0.48;100.00;102283.75;4881516;29;20219;-83
2022/01/26 01:48:28;;;;;;;0.20;0.20;;;0.00;99.90;;;-0.37;100.00;102293.31;4883025;29;20204;-82
2022/01/26 01:51:00;;;;;;;0.20;0.20;;;0.00;99.90;;;-0.45;100.00;102284.00;4883903;29;20221;-82
2022/01/26 01:53:34;;;;;;;0.20;0.20;;;0.00;99.90;;;-0.43;100.00;102288.53;4885554;29;20250;-82
2022/01/26 01:56:04;;;;;;;0.10;0.10;;;0.00;99.90;;;-0.47;100.00;102293.34;4897798;29;20242;-82
2022/01/26 01:58:32;;;;;;;0.20;0.20;;;0.00;99.90;;;-0.52;100.00;102287.78;4899715;29;20204;-82
2022/01/26 02:01:00;;;;;;;0.10;0.10;;;0.00;99.90;;;-0.54;100.00;102286.75;4881458;29;20581;-82
2022/01/26 02:03:29;;;;;;;0.17;0.17;;;-0.10;99.90;;;-0.55;100.00;102290.13;4866132;29;20240;-82
2022/01/26 02:05:57;;;;;;;0.75;0.75;;;-0.10;99.90;;;-0.57;100.00;102278.69;4893303;29;20216;-82
2022/01/26 02:08:25;;;;;;;0.20;0.20;;;-0.10;99.90;;;-0.58;100.00;102275.97;4885703;29;20212;-82
2022/01/26 02:10:53;;;;;;;0.20;0.20;;;-0.20;99.90;;;-0.53;100.00;102290.25;4855379;29;20224;-82
2022/01/26 02:13:29;;;;;;;0.20;0.20;;;-0.20;99.90;;;-0.49;100.00;102281.91;4881227;29;20228;-82
2022/01/26 02:16:10;;;;;;;0.20;0.20;;;-0.10;99.90;;;-0.53;100.00;102280.75;4884073;29;20244;-82
2022/01/26 02:21:26;;;;;;;0.20;0.20;;;-0.10;99.90;;;-0.52;100.00;102279.97;4881078;29;20220;-82
2022/01/26 02:52:07;;;;;;;0.28;0.28;;;0.00;99.90;;;-0.44;100.00;102254.63;4865372;29;20207;-82
2022/01/26 03:00:12;;;;;;;0.20;0.20;;;0.00;99.90;;;-0.37;100.00;102246.53;4879029;29;20208;-82
2022/01/26 03:02:52;;;;;;;0.20;0.20;;;0.00;99.90;;;-0.43;100.00;102248.63;4849702;29;20260;-82
2022/01/26 03:05:26;;;;;;;0.10;0.10;;;0.10;99.90;;;-0.37;100.00;102250.03;4880017;29;20209;-82
2022/01/26 03:08:03;;;;;;;0.20;0.20;;;0.10;99.90;;;-0.39;100.00;102249.00;4865182;29;20208;-82
2022/01/26 03:10:47;;;;;;;0.20;0.20;;;0.10;99.90;;;-0.38;100.00;102244.72;4873446;29;20226;-82
2022/01/26 03:13:21;;;;;;;0.20;0.20;;;0.10;99.90;;;-0.34;100.00;102249.38;4864932;29;20236;-82
2022/01/26 03:15:57;;;;;;;0.20;0.20;;;0.10;99.90;;;-0.33;100.00;102246.00;4864206;29;20232;-82
2022/01/26 03:20:56;;;;;;;0.22;0.22;;;0.10;99.90;;;-0.36;100.00;102243.16;4854038;29;20216;-82
2022/01/26 03:34:21;;;;;;;0.30;0.30;;;0.10;99.90;;;-0.24;100.00;102257.16;4883118;29;20223;-82
2022/01/26 03:36:59;;;;;;;0.35;0.35;;;0.10;99.90;;;-0.24;100.00;102253.63;4891825;29;20240;-82
2022/01/26 03:39:29;;;;;;;0.30;0.30;;;0.20;99.90;;;-0.21;100.00;102251.28;4866778;29;20655;-82
2022/01/26 03:42:05;;;;;;;0.22;0.22;;;0.20;99.90;;;-0.25;100.00;102254.44;4880189;29;20219;-82
2022/01/26 03:44:34;;;;;;;0.30;0.30;;;0.20;99.90;;;-0.26;100.00;102250.00;4864083;29;20205;-82
2022/01/26 03:47:02;;;;;;;0.20;0.20;;;0.20;99.90;;;-0.26;100.00;102252.59;4878173;29;20208;-82
2022/01/26 03:49:30;;;;;;;0.55;0.55;;;0.20;99.90;;;-0.28;100.00;102241.19;4865602;29;20220;-82
2022/01/26 03:51:58;;;;;;;0.20;0.20;;;0.10;99.90;;;-0.33;100.00;102249.50;4876357;29;20249;-82
2022/01/26 03:54:27;;;;;;;0.30;0.30;;;0.20;99.90;;;-0.29;100.00;102249.75;4857758;29;20208;-82
2022/01/26 03:56:55;;;;;;;0.20;0.20;;;0.20;99.90;;;-0.26;100.00;102252.59;4896455;29;20231;-82
2022/01/26 03:59:23;;;;;;;0.20;0.20;;;0.20;99.90;;;-0.26;100.00;102263.00;4876652;29;20212;-82
2022/01/26 04:01:51;;;;;;;0.20;0.20;;;0.20;99.90;;;-0.18;100.00;102268.03;4873607;29;20211;-82
2022/01/26 04:04:26;;;;;;;0.20;0.20;;;0.20;99.90;;;-0.18;100.00;102264.53;4856267;29;20212;-82
2022/01/26 04:06:54;;;;;;;0.30;0.30;;;0.20;99.90;;;-0.19;100.00;102260.13;4904493;29;20697;-82
2022/01/26 04:09:22;;;;;;;1.65;1.65;;;0.20;99.90;;;-0.18;100.00;102274.94;4886827;29;20208;-82
2022/01/26 04:11:50;;;;;;;0.30;0.30;;;0.20;99.90;;;-0.18;100.00;102283.66;4849155;29;20212;-82
2022/01/26 04:14:23;;;;;;;0.20;0.20;;;0.20;99.90;;;-0.16;100.00;102286.38;4876098;29;20231;-82
2022/01/26 04:16:56;;;;;;;0.30;0.30;;;0.30;99.90;;;-0.19;100.00;102279.22;4877866;29;20232;-82
2022/01/26 04:19:25;;;;;;;0.30;0.30;;;0.20;99.90;;;-0.17;100.00;102285.47;4879096;29;20204;-82
2022/01/26 04:24:38;;;;;;;0.30;0.30;;;0.20;99.90;;;-0.14;100.00;102284.81;4863544;29;20583;-82
2022/01/26 04:29:41;;;;;;;0.30;0.30;;;0.30;99.90;;;-0.11;100.00;102293.75;4865541;29;20214;-82
2022/01/26 04:32:12;;;;;;;0.30;0.30;;;0.30;99.90;;;-0.14;100.00;102287.41;4880718;29;20212;-82
2022/01/26 04:34:41;;;;;;;0.20;0.20;;;0.30;99.90;;;-0.13;100.00;102303.13;4882051;29;20212;-82
2022/01/26 04:38:09;;;;;;;0.20;0.20;;;0.30;99.90;;;-0.12;100.00;102306.66;4896671;29;20228;-82
2022/01/26 04:40:06;;;;;;;0.30;0.30;;;0.30;99.90;;;-0.07;100.00;102306.22;4861414;29;20216;-82
2022/01/26 04:43:21;;;;;;;0.73;0.73;;;0.30;99.90;;;-0.15;100.00;102294.31;4894817;29;20220;-82
2022/01/26 04:45:25;;;;;;;0.20;0.20;;;0.30;99.90;;;-0.11;100.00;102300.66;4893543;29;20209;-82
2022/01/26 04:47:52;;;;;;;0.30;0.30;;;0.30;99.90;;;-0.11;100.00;102300.66;4859731;29;20207;-82
2022/01/26 04:50:20;;;;;;;0.20;0.20;;;0.30;99.90;;;-0.12;100.00;102299.75;4869881;29;20212;-82
2022/01/26 04:52:51;;;;;;;0.30;0.30;;;0.30;99.90;;;-0.08;100.00;102313.91;4914692;24;20242;-79
2022/01/26 04:55:43;;;;;;;0.20;0.20;;;0.10;99.90;;;-0.09;100.00;102314.69;4873110;29;20206;-79
2022/01/26 04:59:11;;;;;;;0.52;0.50;;;0.30;99.90;;;-0.10;100.00;102307.69;4876321;29;20242;-79
2022/01/26 05:01:48;;;;;;;0.30;0.30;;;0.30;99.90;;;-0.06;100.00;102309.75;4868611;29;20255;-79
2022/01/26 05:04:59;;;;;;;0.28;0.28;;;0.40;99.90;;;-0.09;100.00;102306.88;4782417;29;20688;-79
2022/01/26 05:07:40;;;;;;;0.30;0.30;;;0.20;99.90;;;-0.06;100.00;102312.34;4771215;29;20695;-79
2022/01/26 05:10:51;;;;;;;0.30;0.30;;;0.10;99.90;;;-0.08;100.00;102317.41;4759919;30;20224;-79
2022/01/26 05:13:19;;;;;;;1.05;1.05;;;0.10;99.90;;;-0.10;100.00;102313.78;4836177;29;20714;-79
2022/01/26 05:16:02;;;;;;;0.28;0.28;;;0.30;99.90;;;-0.18;100.00;102308.75;4849118;29;20227;-79
2022/01/26 05:18:55;;;;;;;0.40;0.40;;;0.30;99.90;;;-0.15;100.00;102311.59;4879583;29;20215;-79
2022/01/26 05:22:30;;;;;;;0.20;0.20;;;0.20;99.90;;;-0.15;100.00;102309.00;4872130;29;20239;-79
2022/01/26 05:25:34;;;;;;;0.30;0.30;;;0.10;99.90;;;-0.12;100.00;102310.16;4846198;29;20220;-79
2022/01/26 05:28:16;;;;;;;0.35;0.35;;;-0.30;99.90;;;-0.14;100.00;102301.31;4901120;29;20215;-79
2022/01/26 05:30:44;;;;;;;0.20;0.20;;;0.20;99.90;;;-0.17;100.00;102294.97;4854435;29;20204;-79
2022/01/26 05:33:12;;;;;;;0.30;0.30;;;0.30;99.90;;;-0.20;100.00;102292.09;4868082;29;20228;-79
2022/01/26 05:35:45;;;;;;;0.20;0.20;;;0.30;99.90;;;-0.19;100.00;102293.94;4898402;29;20200;-79
2022/01/26 05:38:15;;;;;;;0.20;0.20;;;0.20;99.90;;;-0.13;100.00;102294.44;4871366;29;20208;-79
2022/01/26 05:41:01;;;;;;;0.20;0.20;;;0.20;99.90;;;-0.11;100.00;102290.25;4853121;29;20215;-79
2022/01/26 05:43:38;;;;;;;0.30;0.30;;;0.30;99.90;;;-0.13;100.00;102294.44;4896530;29;20236;-79
2022/01/26 05:46:48;;;;;;;0.60;0.60;;;0.30;99.90;;;-0.10;100.00;102289.47;4875378;29;20227;-79
2022/01/26 06:02:46;;;;;;;0.30;0.30;;;0.40;99.90;;;-0.13;100.00;102297.03;4934976;29;20261;-81
2022/01/26 06:05:14;;;;;;;0.20;0.20;;;0.40;99.90;;;-0.14;100.00;102288.31;4897753;29;20214;-80
2022/01/26 06:08:35;;;;;;;0.20;0.20;;;0.40;99.90;;;-0.24;100.00;102280.56;4909830;29;20213;-80
2022/01/26 06:15:30;;;;;;;0.20;0.20;;;0.20;99.90;;;-0.16;100.00;102279.47;5141958;23;20241;-81
2022/01/26 06:18:05;;;;;;;0.20;0.20;;;0.30;99.90;;;-0.24;100.00;102277.94;4904980;29;20235;-81
2022/01/26 06:20:34;;;;;;;0.30;0.30;;;0.30;99.90;;;-0.22;100.00;102276.38;4892731;29;20791;-80
2022/01/26 06:23:05;;;;;;;0.30;0.30;;;0.20;99.90;;;-0.12;100.00;102286.75;4919425;29;20227;-80
2022/01/26 06:25:42;;;;;;;0.30;0.30;;;-0.20;99.90;;;-0.08;100.00;102294.00;4885985;29;20203;-81
2022/01/26 06:31:34;;;;;;;0.20;0.20;;;0.20;99.90;;;-0.20;100.00;102286.91;4918123;29;20239;-81
2022/01/26 06:34:05;;;;;;;0.10;0.10;;;0.20;99.90;;;-0.14;100.00;102301.31;4883275;29;20216;-81
2022/01/26 06:36:36;;;;;;;0.20;0.20;;;0.30;99.90;;;-0.18;100.00;102291.44;4899368;29;20234;-80
2022/01/26 06:39:17;;;;;;;0.20;0.20;;;0.30;99.90;;;-0.12;100.00;102306.66;4805357;29;20223;-80
2022/01/26 06:41:54;;;;;;;0.20;0.20;;;0.30;99.90;;;-0.13;100.00;102320.44;4811155;29;20726;-80
2022/01/26 06:44:31;;;;;;;0.20;0.20;;;0.30;99.90;;;-0.10;100.00;102318.06;4815696;29;20201;-80
2022/01/26 06:49:55;;;;;;;0.20;0.20;;;0.30;99.90;;;-0.07;100.00;102334.84;4871973;29;20216;-80
2022/01/26 06:52:23;;;;;;;0.20;0.20;;;0.30;99.90;;;-0.14;100.00;102337.72;4881192;29;20232;-80
2022/01/26 06:54:51;;;;;;;0.20;0.20;;;0.30;99.90;;;-0.14;100.00;102329.91;4905151;29;20211;-80
2022/01/26 06:57:19;;;;;;;0.20;0.20;;;0.30;99.90;;;-0.14;100.00;102327.31;4900295;29;20234;-81
2022/01/26 07:01:02;;;;;;;0.30;0.30;;;0.30;99.90;;;-0.15;100.00;102333.31;4903797;29;20215;-80
2022/01/26 07:03:31;;;;;;;0.20;0.20;;;0.30;99.90;;;-0.18;100.00;102332.16;4878494;29;20208;-80
2022/01/26 07:05:58;;;;;;;0.20;0.20;;;0.30;99.90;;;-0.19;100.00;102333.84;4880831;29;20230;-80
2022/01/26 07:08:26;;;;;;;0.30;0.30;;;0.30;99.90;;;-0.19;100.00;102330.31;4870889;29;20207;-80
2022/01/26 07:10:54;;;;;;;0.20;0.20;;;0.30;99.90;;;-0.13;100.00;102333.44;4884331;29;20216;-80
2022/01/26 07:13:24;;;;;;;0.30;0.30;;;0.30;99.90;;;-0.14;100.00;102340.31;4896217;29;20219;-80
2022/01/26 07:21:26;;;;;;;0.20;0.20;;;0.20;99.90;;;-0.16;100.00;102374.78;4898902;29;20254;-81
2022/01/26 07:23:57;;;;;;;0.28;0.28;;;0.20;99.90;;;-0.20;100.00;102362.31;4873865;29;20211;-80
2022/01/26 07:26:28;;;;;;;1.67;1.15;;;0.20;99.90;;;-0.21;100.00;102364.00;4905984;29;20206;-80
2022/01/26 07:29:06;;;;;;;0.20;0.20;;;0.20;99.90;;;-0.17;100.00;102366.06;4873070;29;20464;-81
2022/01/26 07:31:36;;;;;;;0.20;0.20;;;0.20;99.90;;;-0.21;100.00;102378.69;4887128;29;20230;-80
2022/01/26 07:34:05;;;;;;;0.30;0.30;;;0.20;99.90;;;-0.19;100.00;102371.94;4886035;29;20577;-80
2022/01/26 07:36:33;;;;;;;0.20;0.20;;;0.20;99.90;;;-0.20;100.00;102360.63;4886381;29;20222;-81
2022/01/26 07:39:07;;;;;;;0.30;0.30;;;0.20;99.90;;;-0.17;100.00;102367.78;4900989;29;20207;-81
2022/01/26 07:41:35;;;;;;;0.20;0.20;;;0.20;99.90;;;-0.18;100.00;102386.75;4887301;29;20230;-81
2022/01/26 07:44:04;;;;;;;0.30;0.30;;;0.20;99.90;;;-0.22;100.00;102371.69;4899078;29;20204;-81
2022/01/26 07:46:37;;;;;;;0.20;0.20;;;0.20;99.90;;;-0.19;100.00;102364.13;4882729;29;20215;-81
2022/01/26 07:49:05;;;;;;;0.30;0.30;;;0.20;99.90;;;-0.20;100.00;102364.91;4882720;29;20222;-81
2022/01/26 07:51:33;;;;;;;0.20;0.20;;;0.20;99.90;;;-0.23;100.00;102357.78;4869018;29;20239;-81
2022/01/26 07:54:18;;;;;;;0.20;0.20;;;0.20;99.90;;;-0.19;100.00;102367.66;4884088;29;20216;-81
2022/01/26 07:57:01;;;;;;;0.30;0.30;;;-0.40;99.90;;;-0.23;100.00;102359.47;4881516;29;20224;-81
2022/01/26 07:59:29;;;;;;;0.57;0.57;;;0.20;99.90;;;-0.23;100.00;102370.78;4883546;29;20204;-81
2022/01/26 08:02:01;;;;;;;0.20;0.20;;;-0.20;99.90;;;-0.25;100.00;102363.63;4885567;29;20231;-81
2022/01/26 08:04:38;;;;;;;0.30;0.30;;;0.10;99.90;;;-0.24;100.00;102361.16;4888048;29;20203;-80
2022/01/26 08:07:06;;;;;;;0.30;0.30;;;0.10;99.90;;;-0.21;100.00;102379.59;4912120;29;20230;-80
2022/01/26 08:09:34;;;;;;;0.30;0.30;;;0.20;99.90;;;-0.20;100.00;102384.03;4904601;29;20210;-81
2022/01/26 08:12:03;;;;;;;0.20;0.20;;;0.20;99.90;;;-0.19;100.00;102384.94;4879432;29;20231;-81
2022/01/26 08:14:31;;;;;;;0.20;0.20;;;0.20;99.90;;;-0.19;100.00;102391.03;4886472;29;20214;-81
2022/01/26 08:16:59;;;;;;;0.30;0.30;;;0.20;99.90;;;-0.18;100.00;102384.16;4888515;29;20223;-80
2022/01/26 08:19:28;;;;;;;0.20;0.20;;;0.20;99.90;;;-0.20;100.00;102375.31;4907509;29;20218;-81
2022/01/26 08:22:00;;;;;;;0.20;0.20;;;0.20;99.90;;;-0.26;100.00;102375.72;4880447;29;20236;-80
2022/01/26 08:24:35;;;;;;;0.20;0.20;;;0.10;99.90;;;-0.25;100.00;102387.94;4886827;29;20211;-81
2022/01/26 08:27:10;;;;;;;0.20;0.20;;;0.10;99.90;;;-0.17;100.00;102385.97;4893004;29;20221;-81
2022/01/26 08:29:55;;;;;;;0.60;0.60;;;0.20;99.90;;;-0.10;100.00;102403.91;4870648;29;20208;-81
2022/01/26 08:32:30;;;;;;;0.32;0.32;;;0.30;99.90;;;-0.25;100.00;102380.13;4891347;29;20344;-81
2022/01/26 08:34:59;;;;;;;0.30;0.30;;;0.10;99.90;;;-0.27;100.00;102373.00;4871395;29;20216;-81
2022/01/26 08:37:27;;;;;;;0.30;0.30;;;0.20;99.90;;;-0.21;100.00;102368.31;4891433;29;20228;-81
2022/01/26 08:39:55;;;;;;;0.20;0.20;;;0.20;99.90;;;-0.27;100.00;102365.19;4871152;29;20219;-81
2022/01/26 08:42:23;;;;;;;0.28;0.28;;;0.20;99.90;;;-0.22;100.00;102363.88;4918018;29;20585;-81
2022/01/26 08:44:54;;;;;;;0.30;0.30;;;0.10;99.90;;;-0.15;100.00;102359.31;4886183;29;20212;-82
2022/01/26 08:47:22;;;;;;;0.30;0.30;;;0.20;99.90;;;-0.10;100.00;102350.19;4910821;29;20212;-81
2022/01/26 08:49:50;;;;;;;0.30;0.30;;;0.30;99.90;;;-0.11;100.00;102360.47;4879112;29;20219;-81
2022/01/26 08:52:18;;;;;;;0.30;0.30;;;0.30;99.90;;;-0.15;100.00;102342.81;4898257;29;20255;-81
2022/01/26 08:54:47;;;;;;;0.20;0.20;;;0.20;99.90;;;-0.08;100.00;102340.81;4912984;29;20219;-81
2022/01/26 08:57:15;;;;;;;0.30;0.30;;;0.30;99.90;;;-0.11;100.00;102340.56;4899451;29;20215;-81
2022/01/26 08:59:43;;;;;;;0.20;0.20;;;0.30;99.90;;;-0.16;100.00;102333.19;4895391;29;20204;-81
2022/01/26 09:02:11;;;;;;;0.20;0.20;;;0.30;99.90;;;-0.12;100.00;102324.84;4887971;29;20224;-81
2022/01/26 09:04:39;;;;;;;0.20;0.20;;;0.30;99.90;;;-0.13;100.00;102321.34;4886113;29;20707;-81
2022/01/26 09:07:08;;;;;;;0.20;0.20;;;0.30;99.90;;;-0.14;100.00;102323.81;4884262;29;20212;-81
2022/01/26 09:09:43;;;;;;;0.30;0.30;;;0.30;99.90;;;-0.09;100.00;102345.91;4872038;29;20211;-81
2022/01/26 09:12:18;;;;;;;0.30;0.30;;;0.30;99.90;;;-0.06;100.00;102344.47;4887420;29;20230;-81
2022/01/26 09:14:47;;;;;;;0.25;0.25;;;0.30;99.90;;;-0.14;100.00;102319.53;4900287;29;20218;-80
2022/01/26 09:17:15;;;;;;;0.25;0.25;;;0.30;99.90;;;-0.15;100.00;102306.41;4869696;29;20239;-81
2022/01/26 09:19:45;;;;;;;0.20;0.20;;;0.30;99.90;;;-0.14;100.00;102310.81;4899257;29;20231;-80
2022/01/26 09:22:17;;;;;;;0.30;0.30;;;0.30;99.90;;;-0.10;100.00;102321.59;4882083;29;20696;-80
2022/01/26 09:24:45;;;;;;;0.20;0.20;;;0.30;99.90;;;-0.08;100.00;102325.22;4876153;29;20610;-80
2022/01/26 09:27:32;;;;;;;0.20;0.20;;;0.30;99.90;;;-0.05;100.00;102334.97;4879580;29;20219;-81
2022/01/26 09:30:00;;;;;;;0.20;0.20;;;0.30;99.90;;;-0.06;100.00;102325.34;4877597;29;20218;-81
2022/01/26 09:32:32;;;;;;;0.20;0.20;;;0.40;99.90;;;-0.04;100.00;102324.69;4877500;29;20235;-80
2022/01/26 09:35:00;;;;;;;0.20;0.20;;;0.40;99.90;;;0.01;100.00;102338.09;4896251;29;20219;-80
2022/01/26 09:37:28;;;;;;;0.30;0.30;;;0.40;99.90;;;0.07;100.00;102330.78;4894392;29;20223;-80
2022/01/26 09:39:56;;;;;;;0.13;0.13;;;0.40;99.90;;;0.06;100.00;102330.66;4869854;29;20215;-80
2022/01/26 09:42:25;;;;;;;0.20;0.20;;;0.40;99.90;;;0.04;100.00;102327.94;4911076;29;20285;-79
2022/01/26 09:44:53;;;;;;;0.20;0.20;;;0.40;99.90;;;0.06;100.00;102333.28;4863887;29;20212;-80
2022/01/26 09:47:25;;;;;;;0.30;0.30;;;0.40;99.90;;;0.04;100.00;102327.03;4913473;29;20212;-80
2022/01/26 09:49:53;;;;;;;0.20;0.20;;;-0.40;99.90;;;0.10;100.00;102330.13;4877616;29;20215;-80
2022/01/26 09:52:31;;;;;;;0.40;0.40;;;0.50;99.90;;;0.10;100.00;102332.75;4898732;29;20680;-80
2022/01/26 09:55:00;;;;;;;0.30;0.30;;;0.50;99.90;;;0.22;100.00;102354.53;4860090;29;20222;-80
2022/01/26 09:57:29;;;;;;;0.22;0.22;;;-0.20;99.90;;;0.21;100.00;102351.03;4913739;29;20212;-80
2022/01/26 09:59:59;;;;;;;0.30;0.30;;;0.50;99.90;;;0.22;100.00;102352.84;4886949;29;20235;-80
2022/01/26 10:02:30;;;;;;;0.22;0.22;;;0.60;99.90;;;0.23;100.00;102357.28;4905917;29;20232;-80
2022/01/26 10:05:04;;;;;;;0.22;0.22;;;0.60;99.90;;;0.25;100.00;102376.53;4882621;29;20220;-80
2022/01/26 10:10:32;;;;;;;0.30;0.30;;;0.60;99.90;;;0.32;100.00;102390.94;4899081;29;20227;-80
2022/01/26 10:16:07;;;;;;;0.30;0.30;;;0.70;99.90;;;0.40;100.00;102396.75;4885888;29;20223;-80
2022/01/26 10:18:36;;;;;;;0.40;0.40;;;0.70;99.90;;;0.39;100.00;102381.94;4886442;29;20221;-81
2022/01/26 10:21:08;;;;;;;0.30;0.30;;;0.70;99.90;;;0.39;100.00;102381.94;4869350;29;20212;-80
2022/01/26 10:23:42;;;;;;;0.40;0.40;;;0.80;99.90;;;0.34;100.00;102381.56;4918914;29;20208;-81
2022/01/26 10:26:18;;;;;;;0.30;0.30;;;0.80;99.90;;;0.37;100.00;102378.28;4878493;29;20215;-81
2022/01/26 10:28:58;;;;;;;0.30;0.30;;;0.80;99.90;;;0.39;100.00;102362.00;4879848;29;20237;-81
2022/01/26 10:31:39;;;;;;;0.30;0.30;;;-0.30;99.90;;;0.42;100.00;102371.75;4898755;29;20602;-81
2022/01/26 10:34:24;;;;;;;0.30;0.30;;;0.80;99.90;;;0.49;100.00;102388.00;4910781;29;20218;-81
2022/01/26 10:37:04;;;;;;;0.20;0.20;;;0.80;99.90;;;0.41;100.00;102386.47;4883154;29;20218;-81
2022/01/26 10:39:38;;;;;;;0.20;0.20;;;0.80;99.90;;;0.48;100.00;102395.69;4887964;29;20234;-81
2022/01/26 10:42:11;;;;;;;0.20;0.20;;;0.80;99.90;;;0.54;100.00;102385.75;4907249;29;20250;-81
2022/01/26 10:45:06;;;;;;;0.30;0.30;;;0.90;99.90;;;0.50;100.00;102373.28;4864644;29;20208;-81
2022/01/26 10:47:38;;;;;;;0.20;0.20;;;0.90;99.90;;;0.47;100.00;102370.44;4901875;29;20207;-81
2022/01/26 10:50:48;;;;;;;0.20;0.20;;;0.90;99.90;;;0.42;100.00;102353.53;4884159;29;20687;-81
2022/01/26 10:53:18;;;;;;;0.20;0.20;;;0.90;99.90;;;0.48;100.00;102356.63;4896320;29;20242;-81
2022/01/26 10:55:47;;;;;;;0.20;0.20;;;0.90;99.90;;;0.49;100.00;102346.34;4886317;29;20226;-81
2022/01/26 10:58:16;;;;;;;0.20;0.20;;;0.90;99.90;;;0.54;100.00;102357.13;4904429;29;20211;-81
2022/01/26 11:00:45;;;;;;;0.20;0.20;;;0.90;99.90;;;0.59;100.00;102361.00;4881648;29;20216;-81
2022/01/26 11:03:14;;;;;;;0.32;0.32;;;;;;;0.60;100.00;102358.53;4899909;23;20239;31
2022/01/26 11:05:42;;;;;;;0.22;0.22;;;1.00;99.90;;;0.67;100.00;102357.31;4867672;29;20236;-76
2022/01/26 11:08:12;;;;;;;0.20;0.20;;;1.00;99.90;;;0.54;100.00;102341.50;4851125;29;20213;-77
2022/01/26 11:10:40;;;;;;;0.30;0.30;;;1.00;99.90;;;0.51;100.00;102329.16;4852924;29;20240;-77
2022/01/26 11:13:08;;;;;;;0.20;0.20;;;1.00;99.90;;;0.57;100.00;102332.25;4839956;29;20210;-77
2022/01/26 11:15:38;;;;;;;0.28;0.28;;;1.00;99.90;;;0.65;100.00;102358.88;4875652;29;20223;-77
2022/01/26 11:18:20;;;;;;;0.30;0.30;;;1.00;99.90;;;0.63;100.00;102345.75;4860509;29;20224;-79
2022/01/26 11:20:53;;;;;;;0.30;0.30;;;1.00;99.90;;;0.56;100.00;102327.81;4865382;29;20209;-78
2022/01/26 11:23:41;;;;;;;0.30;0.30;;;1.00;99.90;;;0.64;100.00;102349.25;4887139;29;20213;-78
2022/01/26 11:26:25;;;;;;;0.30;0.30;;;1.10;99.90;;;0.67;100.00;102348.59;4865193;29;20260;-77
2022/01/26 11:28:53;;;;;;;0.22;0.22;;;1.10;99.90;;;0.66;100.00;102336.34;4875327;29;20212;-75
2022/01/26 11:31:23;;;;;;;0.20;0.20;;;1.10;99.90;;;0.60;100.00;102340.31;4894070;29;20216;-76
2022/01/26 11:34:11;;;;;;;0.20;0.20;;;1.10;99.90;;;0.65;100.00;102340.66;4846840;29;20240;-78
2022/01/26 11:36:42;;;;;;;0.30;0.30;;;1.10;99.90;;;0.62;100.00;102330.00;4891590;29;20213;-76
2022/01/26 11:45:22;;;;;;;0.25;0.25;;;1.00;99.90;;;0.59;100.00;102333.28;4879675;29;20228;-77
2022/01/26 11:48:12;;;;;;;0.20;0.20;;;1.00;99.90;;;0.74;100.00;102345.69;4878767;29;20208;-77
2022/01/26 11:50:48;;;;;;;0.20;0.20;;;1.10;99.90;;;0.67;100.00;102332.97;4871496;29;20215;-77
2022/01/26 11:53:24;;;;;;;0.40;0.40;;;1.10;99.90;;;0.66;100.00;102341.56;4892375;29;20212;-77
2022/01/26 11:56:01;;;;;;;0.20;0.20;;;1.10;99.90;;;0.52;100.00;102314.44;4859372;29;20243;-77
2022/01/26 11:58:43;;;;;;;0.30;0.30;;;1.00;99.90;;;0.67;100.00;102338.19;4874226;29;20213;-77
2022/01/26 12:01:23;;;;;;;0.20;0.20;;;1.00;99.90;;;0.64;100.00;102328.44;4890340;29;20231;-77
2022/01/26 12:04:01;;;;;;;0.30;0.30;;;1.00;99.90;;;0.61;100.00;102322.97;4871522;29;20619;-77
2022/01/26 12:06:37;;;;;;;0.30;0.30;;;1.10;99.90;;;0.60;100.00;102316.88;4859434;29;20223;-77
2022/01/26 12:09:08;;;;;;;0.20;0.20;;;1.00;99.90;;;0.66;100.00;102311.22;4860213;29;20208;-77
2022/01/26 12:11:37;;;;;;;0.20;0.20;;;1.10;99.90;;;0.61;100.00;102308.25;4888737;29;20213;-77
2022/01/26 12:14:13;;;;;;;0.30;0.30;;;1.10;99.90;;;0.66;100.00;102305.13;4872594;29;20232;-77
2022/01/26 12:16:46;;;;;;;0.20;0.20;;;1.10;99.90;;;0.69;100.00;102310.56;4872815;29;20219;-79
2022/01/26 12:20:08;;;;;;;0.20;0.20;;;1.10;99.90;;;0.58;100.00;102304.50;4874084;29;20221;-78
2022/01/26 12:34:19;;;;;;;0.20;0.20;;;1.00;99.90;;;0.63;100.00;102306.69;4887709;29;20224;-78
2022/01/26 12:41:14;;;;;;;0.20;0.20;;;1.00;99.90;;;0.71;100.00;102319.41;4871653;29;20241;-78
2022/01/26 12:42:41;;;;;;;0.20;0.20;;;1.10;99.90;;;0.60;100.00;102289.91;4873748;29;20209;-77
2022/01/26 12:45:05;;;;;;;0.30;0.30;;;1.00;99.90;;;0.62;100.00;102286.66;4860120;29;20228;-78
2022/01/26 12:47:34;;;;;;;0.20;0.20;;;1.00;99.90;;;0.65;100.00;102299.00;4874161;29;20216;-78
2022/01/26 12:50:03;;;;;;;0.20;0.20;;;1.00;99.90;;;0.63;100.00;102297.97;4871105;29;20228;-79
2022/01/26 12:52:31;;;;;;;0.20;0.20;;;1.00;99.90;;;0.69;100.00;102302.75;4862137;29;20225;-78
2022/01/26 12:55:00;;;;;;;0.20;0.20;;;1.10;99.90;;;0.68;100.00;102298.34;4856817;29;20237;-78
2022/01/26 12:57:27;;;;;;;0.28;0.28;;;1.10;99.90;;;0.66;100.00;102298.22;4856171;29;20213;-78
2022/01/26 13:00:04;;;;;;;0.20;0.20;;;1.10;99.90;;;0.68;100.00;102299.25;4872282;29;20726;-78